sensor_id;sensor_type;location;lat;lon;timestamp;pressure;altitude;pressure_sealevel;temperature
65738;BMP280;52478;51.844;6.582;2024-01-10T00:00:23;102865.28;;;19.47
65738;BMP280;52478;51.844;6.582;2024-01-10T00:02:50;102857.38;;;19.46
65738;BMP280;52478;51.844;6.582;2024-01-10T00:05:17;102853.53;;;19.43
65738;BMP280;52478;51.844;6.582;2024-01-10T00:07:45;102854.78;;;19.42
65738;BMP280;52478;51.844;6.582;2024-01-10T00:10:11;102863.09;;;19.42
65738;BMP280;52478;51.844;6.582;2024-01-10T00:12:38;102856.00;;;19.41
65738;BMP280;52478;51.844;6.582;2024-01-10T00:15:05;102872.66;;;19.41
65738;BMP280;52478;51.844;6.582;2024-01-10T00:17:32;102856.91;;;19.38
65738;BMP280;52478;51.844;6.582;2024-01-10T00:19:58;102861.72;;;19.38
65738;BMP280;52478;51.844;6.582;2024-01-10T00:22:24;102849.81;;;19.37
65738;BMP280;52478;51.844;6.582;2024-01-10T00:24:52;102845.19;;;19.34
65738;BMP280;52478;51.844;6.582;2024-01-10T00:27:19;102842.41;;;19.34
65738;BMP280;52478;51.844;6.582;2024-01-10T00:29:45;102841.66;;;19.34
65738;BMP280;52478;51.844;6.582;2024-01-10T00:32:12;102838.09;;;19.33
65738;BMP280;52478;51.844;6.582;2024-01-10T00:34:38;102841.66;;;19.34
65738;BMP280;52478;51.844;6.582;2024-01-10T00:37:05;102841.31;;;19.32
65738;BMP280;52478;51.844;6.582;2024-01-10T00:39:31;102830.72;;;19.30
65738;BMP280;52478;51.844;6.582;2024-01-10T00:41:59;102827.13;;;19.30
65738;BMP280;52478;51.844;6.582;2024-01-10T00:44:26;102829.13;;;19.29
65738;BMP280;52478;51.844;6.582;2024-01-10T00:46:52;102826.81;;;19.28
65738;BMP280;52478;51.844;6.582;2024-01-10T00:49:18;102831.16;;;19.29
65738;BMP280;52478;51.844;6.582;2024-01-10T00:51:46;102822.47;;;19.27
65738;BMP280;52478;51.844;6.582;2024-01-10T00:54:12;102827.31;;;19.26
65738;BMP280;52478;51.844;6.582;2024-01-10T00:56:38;102827.75;;;19.25
65738;BMP280;52478;51.844;6.582;2024-01-10T00:59:06;102828.97;;;19.24
65738;BMP280;52478;51.844;6.582;2024-01-10T01:01:33;102826.19;;;19.24
65738;BMP280;52478;51.844;6.582;2024-01-10T01:03:59;102822.63;;;19.23
65738;BMP280;52478;51.844;6.582;2024-01-10T01:06:26;102826.66;;;19.22
65738;BMP280;52478;51.844;6.582;2024-01-10T01:08:52;102820.34;;;19.22
65738;BMP280;52478;51.844;6.582;2024-01-10T01:11:18;102818.78;;;19.21
65738;BMP280;52478;51.844;6.582;2024-01-10T01:13:45;102818.78;;;19.21
65738;BMP280;52478;51.844;6.582;2024-01-10T01:16:13;102820.78;;;19.20
65738;BMP280;52478;51.844;6.582;2024-01-10T01:18:39;102818.94;;;19.17
65738;BMP280;52478;51.844;6.582;2024-01-10T01:21:07;102827.28;;;19.17
65738;BMP280;52478;51.844;6.582;2024-01-10T01:23:34;102818.16;;;19.17
65738;BMP280;52478;51.844;6.582;2024-01-10T01:26:00;102817.41;;;19.16
65738;BMP280;52478;51.844;6.582;2024-01-10T01:28:28;102813.50;;;19.14
65738;BMP280;52478;51.844;6.582;2024-01-10T01:30:55;102819.06;;;19.14
65738;BMP280;52478;51.844;6.582;2024-01-10T01:33:23;102822.63;;;19.14
65738;BMP280;52478;51.844;6.582;2024-01-10T01:35:49;102823.88;;;19.13
65738;BMP280;52478;51.844;6.582;2024-01-10T01:38:16;102825.09;;;19.12
65738;BMP280;52478;51.844;6.582;2024-01-10T01:40:42;102816.78;;;19.12
65738;BMP280;52478;51.844;6.582;2024-01-10T01:43:19;102811.22;;;19.12
65738;BMP280;52478;51.844;6.582;2024-01-10T01:45:46;102810.88;;;19.10
65738;BMP280;52478;51.844;6.582;2024-01-10T01:48:13;102801.78;;;19.10
65738;BMP280;52478;51.844;6.582;2024-01-10T01:50:41;102804.56;;;19.10
65738;BMP280;52478;51.844;6.582;2024-01-10T01:53:08;102807.03;;;19.08
65738;BMP280;52478;51.844;6.582;2024-01-10T01:55:34;102814.59;;;19.07
65738;BMP280;52478;51.844;6.582;2024-01-10T01:58:02;102807.03;;;19.08
65738;BMP280;52478;51.844;6.582;2024-01-10T02:00:28;102806.72;;;19.06
65738;BMP280;52478;51.844;6.582;2024-01-10T02:02:57;102796.38;;;19.06
65738;BMP280;52478;51.844;6.582;2024-01-10T02:05:24;102796.09;;;19.04
65738;BMP280;52478;51.844;6.582;2024-01-10T02:07:52;102787.75;;;19.04
65738;BMP280;52478;51.844;6.582;2024-01-10T02:10:20;102789.28;;;19.05
65738;BMP280;52478;51.844;6.582;2024-01-10T02:12:47;102781.44;;;19.04
65738;BMP280;52478;51.844;6.582;2024-01-10T02:15:14;102776.78;;;19.01
65738;BMP280;52478;51.844;6.582;2024-01-10T02:17:40;102777.91;;;19.03
65738;BMP280;52478;51.844;6.582;2024-01-10T02:20:08;102772.00;;;19.01
65738;BMP280;52478;51.844;6.582;2024-01-10T02:22:34;102765.22;;;19.02
65738;BMP280;52478;51.844;6.582;2024-01-10T02:25:02;102765.69;;;19.01
65738;BMP280;52478;51.844;6.582;2024-01-10T02:27:30;102770.44;;;19.00
65738;BMP280;52478;51.844;6.582;2024-01-10T02:29:56;102761.06;;;18.98
65738;BMP280;52478;51.844;6.582;2024-01-10T02:32:24;102761.84;;;18.98
65738;BMP280;52478;51.844;6.582;2024-01-10T02:34:50;102757.03;;;18.99
65738;BMP280;52478;51.844;6.582;2024-01-10T02:37:17;102757.84;;;18.99
65738;BMP280;52478;51.844;6.582;2024-01-10T02:39:43;102745.19;;;18.98
65738;BMP280;52478;51.844;6.582;2024-01-10T02:42:11;102750.41;;;18.96
65738;BMP280;52478;51.844;6.582;2024-01-10T02:44:37;102740.84;;;18.97
65738;BMP280;52478;51.844;6.582;2024-01-10T02:47:05;102746.09;;;18.95
65738;BMP280;52478;51.844;6.582;2024-01-10T02:49:31;102742.06;;;18.96
65738;BMP280;52478;51.844;6.582;2024-01-10T02:51:58;102740.56;;;18.95
65738;BMP280;52478;51.844;6.582;2024-01-10T02:54:24;102735.00;;;18.95
65738;BMP280;52478;51.844;6.582;2024-01-10T02:56:51;102753.16;;;18.96
65738;BMP280;52478;51.844;6.582;2024-01-10T02:59:19;102742.06;;;18.96
65738;BMP280;52478;51.844;6.582;2024-01-10T03:01:45;102751.66;;;18.95
65738;BMP280;52478;51.844;6.582;2024-01-10T03:04:12;102750.88;;;18.95
65738;BMP280;52478;51.844;6.582;2024-01-10T03:06:38;102748.53;;;18.93
65738;BMP280;52478;51.844;6.582;2024-01-10T03:09:05;102755.66;;;18.94
65738;BMP280;52478;51.844;6.582;2024-01-10T03:11:31;102752.88;;;18.94
65738;BMP280;52478;51.844;6.582;2024-01-10T03:14:02;102752.09;;;18.94
65738;BMP280;52478;51.844;6.582;2024-01-10T03:16:30;102750.13;;;18.94
65738;BMP280;52478;51.844;6.582;2024-01-10T03:18:57;102751.31;;;18.93
65738;BMP280;52478;51.844;6.582;2024-01-10T03:21:23;102743.00;;;18.93
65738;BMP280;52478;51.844;6.582;2024-01-10T03:23:51;102742.41;;;18.90
65738;BMP280;52478;51.844;6.582;2024-01-10T03:26:18;102730.81;;;18.91
65738;BMP280;52478;51.844;6.582;2024-01-10T03:28:45;102739.94;;;18.92
65738;BMP280;52478;51.844;6.582;2024-01-10T03:31:11;102741.16;;;18.91
65738;BMP280;52478;51.844;6.582;2024-01-10T03:33:39;102737.59;;;18.90
65738;BMP280;52478;51.844;6.582;2024-01-10T03:36:07;102741.16;;;18.91
65738;BMP280;52478;51.844;6.582;2024-01-10T03:38:33;102738.38;;;18.91
65738;BMP280;52478;51.844;6.582;2024-01-10T03:41:00;102735.25;;;18.88
65738;BMP280;52478;51.844;6.582;2024-01-10T03:43:26;102728.97;;;18.88
65738;BMP280;52478;51.844;6.582;2024-01-10T03:45:53;102722.63;;;18.88
65738;BMP280;52478;51.844;6.582;2024-01-10T03:48:20;102738.50;;;18.87
65738;BMP280;52478;51.844;6.582;2024-01-10T03:50:48;102732.66;;;18.85
65738;BMP280;52478;51.844;6.582;2024-01-10T03:53:14;102733.44;;;18.86
65738;BMP280;52478;51.844;6.582;2024-01-10T03:55:41;102731.41;;;18.86
65738;BMP280;52478;51.844;6.582;2024-01-10T03:58:07;102722.34;;;18.86
65738;BMP280;52478;51.844;6.582;2024-01-10T04:00:34;102718.03;;;18.85
65738;BMP280;52478;51.844;6.582;2024-01-10T04:03:00;102710.91;;;18.84
65738;BMP280;52478;51.844;6.582;2024-01-10T04:05:27;102713.66;;;18.84
65738;BMP280;52478;51.844;6.582;2024-01-10T04:07:55;102709.06;;;18.81
65738;BMP280;52478;51.844;6.582;2024-01-10T04:10:22;102712.75;;;18.78
65738;BMP280;52478;51.844;6.582;2024-01-10T04:12:49;102721.38;;;18.80
65738;BMP280;52478;51.844;6.582;2024-01-10T04:15:16;102713.03;;;18.80
65738;BMP280;52478;51.844;6.582;2024-01-10T04:17:43;102712.59;;;18.81
65738;BMP280;52478;51.844;6.582;2024-01-10T04:20:10;102718.16;;;18.81
65738;BMP280;52478;51.844;6.582;2024-01-10T04:22:36;102702.28;;;18.82
65738;BMP280;52478;51.844;6.582;2024-01-10T04:25:06;102704.59;;;18.83
65738;BMP280;52478;51.844;6.582;2024-01-10T04:27:33;102705.06;;;18.82
65738;BMP280;52478;51.844;6.582;2024-01-10T04:29:59;102706.59;;;18.83
65738;BMP280;52478;51.844;6.582;2024-01-10T04:32:26;102699.50;;;18.82
65738;BMP280;52478;51.844;6.582;2024-01-10T04:34:52;102699.50;;;18.82
65738;BMP280;52478;51.844;6.582;2024-01-10T04:37:19;102702.28;;;18.82
65738;BMP280;52478;51.844;6.582;2024-01-10T04:39:45;102693.19;;;18.81
65738;BMP280;52478;51.844;6.582;2024-01-10T04:42:13;102695.94;;;18.81
65738;BMP280;52478;51.844;6.582;2024-01-10T04:44:40;102691.63;;;18.80
65738;BMP280;52478;51.844;6.582;2024-01-10T04:47:07;102694.41;;;18.80
65738;BMP280;52478;51.844;6.582;2024-01-10T04:49:33;102689.66;;;18.81
65738;BMP280;52478;51.844;6.582;2024-01-10T04:52:00;102695.19;;;18.81
65738;BMP280;52478;51.844;6.582;2024-01-10T04:54:27;102699.97;;;18.80
65738;BMP280;52478;51.844;6.582;2024-01-10T04:56:53;102704.44;;;18.78
65738;BMP280;52478;51.844;6.582;2024-01-10T04:59:21;102708.72;;;18.79
65738;BMP280;52478;51.844;6.582;2024-01-10T05:01:48;102713.56;;;18.78
65738;BMP280;52478;51.844;6.582;2024-01-10T05:04:14;102718.31;;;18.78
65738;BMP280;52478;51.844;6.582;2024-01-10T05:06:41;102722.31;;;18.77
65738;BMP280;52478;51.844;6.582;2024-01-10T05:09:07;102721.53;;;18.76
65738;BMP280;52478;51.844;6.582;2024-01-10T05:11:35;102722.31;;;18.77
65738;BMP280;52478;51.844;6.582;2024-01-10T05:14:02;102719.19;;;18.75
65738;BMP280;52478;51.844;6.582;2024-01-10T05:16:30;102720.00;;;18.75
65738;BMP280;52478;51.844;6.582;2024-01-10T05:19:00;102712.13;;;18.74
65738;BMP280;52478;51.844;6.582;2024-01-10T05:21:28;102703.81;;;18.74
65738;BMP280;52478;51.844;6.582;2024-01-10T05:23:55;102697.94;;;18.72
65738;BMP280;52478;51.844;6.582;2024-01-10T05:26:21;102697.94;;;18.72
65738;BMP280;52478;51.844;6.582;2024-01-10T05:28:48;102709.06;;;18.72
65738;BMP280;52478;51.844;6.582;2024-01-10T05:31:14;102710.25;;;18.71
65738;BMP280;52478;51.844;6.582;2024-01-10T05:33:42;102713.03;;;18.71
65738;BMP280;52478;51.844;6.582;2024-01-10T05:36:09;102707.19;;;18.69
65738;BMP280;52478;51.844;6.582;2024-01-10T05:38:36;102717.03;;;18.70
65738;BMP280;52478;51.844;6.582;2024-01-10T05:41:03;102715.53;;;18.69
65738;BMP280;52478;51.844;6.582;2024-01-10T05:43:30;102714.25;;;18.70
65738;BMP280;52478;51.844;6.582;2024-01-10T05:45:56;102714.25;;;18.70
65738;BMP280;52478;51.844;6.582;2024-01-10T05:48:24;102708.25;;;18.71
65738;BMP280;52478;51.844;6.582;2024-01-10T05:50:52;102713.03;;;18.71
65738;BMP280;52478;51.844;6.582;2024-01-10T05:53:18;102705.50;;;18.71
65738;BMP280;52478;51.844;6.582;2024-01-10T05:55:45;102703.50;;;18.72
65738;BMP280;52478;51.844;6.582;2024-01-10T05:58:11;102693.94;;;18.73
65738;BMP280;52478;51.844;6.582;2024-01-10T06:00:38;102695.50;;;18.74
65738;BMP280;52478;51.844;6.582;2024-01-10T06:03:04;102693.03;;;18.76
65738;BMP280;52478;51.844;6.582;2024-01-10T06:05:30;102692.09;;;18.79
65738;BMP280;52478;51.844;6.582;2024-01-10T06:07:58;102686.88;;;18.81
65738;BMP280;52478;51.844;6.582;2024-01-10T06:10:25;102682.38;;;18.83
65738;BMP280;52478;51.844;6.582;2024-01-10T06:12:51;102698.91;;;18.87
65738;BMP280;52478;51.844;6.582;2024-01-10T06:15:18;102694.88;;;18.88
65738;BMP280;52478;51.844;6.582;2024-01-10T06:17:44;102686.88;;;18.90
65738;BMP280;52478;51.844;6.582;2024-01-10T06:20:11;102682.88;;;18.91
65738;BMP280;52478;51.844;6.582;2024-01-10T06:22:39;102667.78;;;18.92
65738;BMP280;52478;51.844;6.582;2024-01-10T06:25:08;102669.28;;;18.92
65738;BMP280;52478;51.844;6.582;2024-01-10T06:27:35;102673.59;;;18.93
65738;BMP280;52478;51.844;6.582;2024-01-10T06:30:01;102671.59;;;18.94
65738;BMP280;52478;51.844;6.582;2024-01-10T06:32:28;102669.91;;;18.96
65738;BMP280;52478;51.844;6.582;2024-01-10T06:34:54;102661.56;;;18.96
65738;BMP280;52478;51.844;6.582;2024-01-10T06:37:21;102665.88;;;18.97
65738;BMP280;52478;51.844;6.582;2024-01-10T06:39:47;102661.13;;;18.98
65738;BMP280;52478;51.844;6.582;2024-01-10T06:42:15;102663.59;;;18.96
65738;BMP280;52478;51.844;6.582;2024-01-10T06:44:41;102675.78;;;18.98
65738;BMP280;52478;51.844;6.582;2024-01-10T06:47:08;102686.91;;;18.98
65738;BMP280;52478;51.844;6.582;2024-01-10T06:49:35;102696.75;;;18.99
65738;BMP280;52478;51.844;6.582;2024-01-10T06:52:01;102691.22;;;18.99
65738;BMP280;52478;51.844;6.582;2024-01-10T06:54:28;102689.19;;;19.00
65738;BMP280;52478;51.844;6.582;2024-01-10T06:56:54;102687.97;;;19.01
65738;BMP280;52478;51.844;6.582;2024-01-10T06:59:22;102688.72;;;19.01
65738;BMP280;52478;51.844;6.582;2024-01-10T07:01:51;102690.75;;;19.01
65738;BMP280;52478;51.844;6.582;2024-01-10T07:04:18;102683.94;;;19.02
65738;BMP280;52478;51.844;6.582;2024-01-10T07:06:47;102687.47;;;19.02
65738;BMP280;52478;51.844;6.582;2024-01-10T07:09:14;102687.47;;;19.02
65738;BMP280;52478;51.844;6.582;2024-01-10T07:11:44;102679.50;;;18.95
65738;BMP280;52478;51.844;6.582;2024-01-10T07:14:11;102689.06;;;19.03
65738;BMP280;52478;51.844;6.582;2024-01-10T07:16:39;102685.06;;;19.04
65738;BMP280;52478;51.844;6.582;2024-01-10T07:19:08;102683.00;;;19.05
65738;BMP280;52478;51.844;6.582;2024-01-10T07:21:34;102686.56;;;19.05
65738;BMP280;52478;51.844;6.582;2024-01-10T07:24:00;102683.78;;;19.05
65738;BMP280;52478;51.844;6.582;2024-01-10T07:26:27;102683.34;;;19.07
65738;BMP280;52478;51.844;6.582;2024-01-10T07:28:53;102686.91;;;19.07
65738;BMP280;52478;51.844;6.582;2024-01-10T07:31:20;102698.00;;;19.07
65738;BMP280;52478;51.844;6.582;2024-01-10T07:33:48;102699.56;;;19.08
65738;BMP280;52478;51.844;6.582;2024-01-10T07:36:14;102699.56;;;19.08
65738;BMP280;52478;51.844;6.582;2024-01-10T07:38:41;102701.53;;;19.08
65738;BMP280;52478;51.844;6.582;2024-01-10T07:41:07;102689.19;;;19.09
65738;BMP280;52478;51.844;6.582;2024-01-10T07:43:34;102701.06;;;19.09
65738;BMP280;52478;51.844;6.582;2024-01-10T07:46:00;102702.59;;;19.10
65738;BMP280;52478;51.844;6.582;2024-01-10T07:48:27;102708.94;;;19.11
65738;BMP280;52478;51.844;6.582;2024-01-10T07:50:57;102710.94;;;19.10
65738;BMP280;52478;51.844;6.582;2024-01-10T07:53:23;102716.81;;;19.12
65738;BMP280;52478;51.844;6.582;2024-01-10T07:55:52;102708.78;;;19.14
65738;BMP280;52478;51.844;6.582;2024-01-10T07:58:18;102709.56;;;19.15
65738;BMP280;52478;51.844;6.582;2024-01-10T08:00:44;102718.50;;;19.19
65738;BMP280;52478;51.844;6.582;2024-01-10T08:03:11;102719.59;;;19.21
65738;BMP280;52478;51.844;6.582;2024-01-10T08:05:38;102719.88;;;19.23
65738;BMP280;52478;51.844;6.582;2024-01-10T08:08:06;102720.50;;;19.27
65738;BMP280;52478;51.844;6.582;2024-01-10T08:10:33;102717.28;;;19.29
65738;BMP280;52478;51.844;6.582;2024-01-10T08:12:59;102722.38;;;19.30
65738;BMP280;52478;51.844;6.582;2024-01-10T08:15:26;102715.88;;;19.33
65738;BMP280;52478;51.844;6.582;2024-01-10T08:17:55;102705.06;;;19.35
65738;BMP280;52478;51.844;6.582;2024-01-10T08:20:22;102712.47;;;19.38
65738;BMP280;52478;51.844;6.582;2024-01-10T08:22:48;102710.78;;;19.41
65738;BMP280;52478;51.844;6.582;2024-01-10T08:25:16;102701.22;;;19.42
65738;BMP280;52478;51.844;6.582;2024-01-10T08:27:44;102694.72;;;19.45
65738;BMP280;52478;51.844;6.582;2024-01-10T08:30:10;102699.81;;;19.46
65738;BMP280;52478;51.844;6.582;2024-01-10T08:32:37;102704.44;;;19.49
65738;BMP280;52478;51.844;6.582;2024-01-10T08:35:04;102706.78;;;19.51
65738;BMP280;52478;51.844;6.582;2024-01-10T08:37:32;102707.84;;;19.53
65738;BMP280;52478;51.844;6.582;2024-01-10T08:39:58;102699.81;;;19.55
65738;BMP280;52478;51.844;6.582;2024-01-10T08:42:27;102705.66;;;19.57
65738;BMP280;52478;51.844;6.582;2024-01-10T08:44:54;102714.31;;;19.59
65738;BMP280;52478;51.844;6.582;2024-01-10T08:47:21;102709.03;;;19.61
65738;BMP280;52478;51.844;6.582;2024-01-10T08:49:48;102698.25;;;19.63
65738;BMP280;52478;51.844;6.582;2024-01-10T08:52:14;102697.81;;;19.65
65738;BMP280;52478;51.844;6.582;2024-01-10T08:54:40;102701.66;;;19.67
65738;BMP280;52478;51.844;6.582;2024-01-10T08:57:07;102688.06;;;19.69
65738;BMP280;52478;51.844;6.582;2024-01-10T08:59:35;102706.25;;;19.70
65738;BMP280;52478;51.844;6.582;2024-01-10T09:02:01;102702.56;;;19.73
65738;BMP280;52478;51.844;6.582;2024-01-10T09:04:28;102707.63;;;19.75
65738;BMP280;52478;51.844;6.582;2024-01-10T09:06:54;102707.19;;;19.76
65738;BMP280;52478;51.844;6.582;2024-01-10T09:09:21;102703.44;;;19.79
65738;BMP280;52478;51.844;6.582;2024-01-10T09:11:48;102705.03;;;19.80
65738;BMP280;52478;51.844;6.582;2024-01-10T09:14:14;102697.75;;;19.83
65738;BMP280;52478;51.844;6.582;2024-01-10T09:16:42;102700.34;;;19.86
65738;BMP280;52478;51.844;6.582;2024-01-10T09:19:09;102705.44;;;19.88
65738;BMP280;52478;51.844;6.582;2024-01-10T09:21:36;102700.19;;;19.90
65738;BMP280;52478;51.844;6.582;2024-01-10T09:24:03;102693.38;;;19.91
65738;BMP280;52478;51.844;6.582;2024-01-10T09:26:33;102693.25;;;19.94
65738;BMP280;52478;51.844;6.582;2024-01-10T09:28:59;102700.31;;;19.95
65738;BMP280;52478;51.844;6.582;2024-01-10T09:31:26;102703.41;;;19.97
65738;BMP280;52478;51.844;6.582;2024-01-10T09:33:54;102700.94;;;19.99
65738;BMP280;52478;51.844;6.582;2024-01-10T09:36:20;102678.41;;;19.88
65738;BMP280;52478;51.844;6.582;2024-01-10T09:38:46;102700.00;;;20.02
65738;BMP280;52478;51.844;6.582;2024-01-10T09:41:14;102691.94;;;20.04
65738;BMP280;52478;51.844;6.582;2024-01-10T09:43:41;102689.47;;;20.06
65738;BMP280;52478;51.844;6.582;2024-01-10T09:46:07;102688.19;;;20.07
65738;BMP280;52478;51.844;6.582;2024-01-10T09:48:35;102700.41;;;20.09
65738;BMP280;52478;51.844;6.582;2024-01-10T09:51:03;102695.63;;;20.10
65738;BMP280;52478;51.844;6.582;2024-01-10T09:53:31;102690.38;;;20.12
65738;BMP280;52478;51.844;6.582;2024-01-10T09:55:59;102690.69;;;20.14
65738;BMP280;52478;51.844;6.582;2024-01-10T09:58:30;102692.22;;;20.15
65738;BMP280;52478;51.844;6.582;2024-01-10T10:01:04;102700.06;;;20.16
65738;BMP280;52478;51.844;6.582;2024-01-10T10:03:33;102697.59;;;20.18
65738;BMP280;52478;51.844;6.582;2024-01-10T10:06:04;102693.56;;;20.19
65738;BMP280;52478;51.844;6.582;2024-01-10T10:08:30;102707.00;;;20.21
65738;BMP280;52478;51.844;6.582;2024-01-10T10:10:57;102710.13;;;20.23
65738;BMP280;52478;51.844;6.582;2024-01-10T10:13:25;102701.91;;;20.19
65738;BMP280;52478;51.844;6.582;2024-01-10T10:15:57;102703.59;;;20.26
65738;BMP280;52478;51.844;6.582;2024-01-10T10:18:25;102707.94;;;20.27
65738;BMP280;52478;51.844;6.582;2024-01-10T10:21:06;102705.91;;;20.27
65738;BMP280;52478;51.844;6.582;2024-01-10T10:23:34;102702.63;;;20.29
65738;BMP280;52478;51.844;6.582;2024-01-10T10:26:10;102707.75;;;20.30
65738;BMP280;52478;51.844;6.582;2024-01-10T10:28:39;102711.59;;;20.33
65738;BMP280;52478;51.844;6.582;2024-01-10T10:31:06;102706.03;;;20.33
65738;BMP280;52478;51.844;6.582;2024-01-10T10:33:33;102701.25;;;20.33
65738;BMP280;52478;51.844;6.582;2024-01-10T10:35:59;102698.00;;;20.35
65738;BMP280;52478;51.844;6.582;2024-01-10T10:38:27;102704.31;;;20.35
65738;BMP280;52478;51.844;6.582;2024-01-10T10:40:55;102696.75;;;20.36
65738;BMP280;52478;51.844;6.582;2024-01-10T10:43:21;102704.63;;;20.37
65738;BMP280;52478;51.844;6.582;2024-01-10T10:45:49;102688.69;;;20.38
65738;BMP280;52478;51.844;6.582;2024-01-10T10:48:17;102687.44;;;20.39
65738;BMP280;52478;51.844;6.582;2024-01-10T10:50:54;102690.22;;;20.39
65738;BMP280;52478;51.844;6.582;2024-01-10T10:53:25;102697.34;;;20.40
65738;BMP280;52478;51.844;6.582;2024-01-10T10:55:56;102687.75;;;20.41
65738;BMP280;52478;51.844;6.582;2024-01-10T10:58:23;102687.75;;;20.41
65738;BMP280;52478;51.844;6.582;2024-01-10T11:00:50;102696.41;;;20.43
65738;BMP280;52478;51.844;6.582;2024-01-10T11:03:17;102695.44;;;20.46
65738;BMP280;52478;51.844;6.582;2024-01-10T11:05:45;102694.50;;;20.49
65738;BMP280;52478;51.844;6.582;2024-01-10T11:08:15;102694.31;;;20.52
65738;BMP280;52478;51.844;6.582;2024-01-10T11:10:43;102692.13;;;20.56
65738;BMP280;52478;51.844;6.582;2024-01-10T11:13:26;102693.22;;;20.59
65738;BMP280;52478;51.844;6.582;2024-01-10T11:16:14;102686.22;;;20.63
65738;BMP280;52478;51.844;6.582;2024-01-10T11:18:54;102690.38;;;20.68
65738;BMP280;52478;51.844;6.582;2024-01-10T11:21:31;102686.91;;;20.73
65738;BMP280;52478;51.844;6.582;2024-01-10T11:24:03;102681.66;;;20.75
65738;BMP280;52478;51.844;6.582;2024-01-10T11:26:32;102679.44;;;20.79
65738;BMP280;52478;51.844;6.582;2024-01-10T11:28:59;102678.50;;;20.82
65738;BMP280;52478;51.844;6.582;2024-01-10T11:31:28;102683.09;;;20.85
65738;BMP280;52478;51.844;6.582;2024-01-10T11:33:55;102680.19;;;20.88
65738;BMP280;52478;51.844;6.582;2024-01-10T11:36:22;102669.31;;;20.90
65738;BMP280;52478;51.844;6.582;2024-01-10T11:38:56;102671.63;;;20.92
65738;BMP280;52478;51.844;6.582;2024-01-10T11:41:26;102657.97;;;20.94
65738;BMP280;52478;51.844;6.582;2024-01-10T11:44:29;102658.56;;;20.98
65738;BMP280;52478;51.844;6.582;2024-01-10T11:46:56;102663.16;;;21.01
65738;BMP280;52478;51.844;6.582;2024-01-10T11:49:23;102659.13;;;21.02
65738;BMP280;52478;51.844;6.582;2024-01-10T11:51:52;102661.47;;;21.03
65738;BMP280;52478;51.844;6.582;2024-01-10T11:54:38;102658.19;;;21.05
65738;BMP280;52478;51.844;6.582;2024-01-10T11:57:12;102649.38;;;21.06
65738;BMP280;52478;51.844;6.582;2024-01-10T11:59:41;102644.56;;;21.07
65738;BMP280;52478;51.844;6.582;2024-01-10T12:02:10;102649.19;;;21.10
65738;BMP280;52478;51.844;6.582;2024-01-10T12:04:36;102642.66;;;21.13
65738;BMP280;52478;51.844;6.582;2024-01-10T12:07:03;102648.97;;;21.13
65738;BMP280;52478;51.844;6.582;2024-01-10T12:09:30;102649.56;;;21.17
65738;BMP280;52478;51.844;6.582;2024-01-10T12:11:56;102649.09;;;21.19
65738;BMP280;52478;51.844;6.582;2024-01-10T12:14:23;102646.31;;;21.19
65738;BMP280;52478;51.844;6.582;2024-01-10T12:16:52;102646.56;;;21.20
65738;BMP280;52478;51.844;6.582;2024-01-10T12:19:18;102646.09;;;21.22
65738;BMP280;52478;51.844;6.582;2024-01-10T12:21:45;102648.44;;;21.23
65738;BMP280;52478;51.844;6.582;2024-01-10T12:24:12;102645.34;;;21.22
65738;BMP280;52478;51.844;6.582;2024-01-10T12:26:43;102646.91;;;21.23
65738;BMP280;52478;51.844;6.582;2024-01-10T12:29:09;102639.00;;;21.21
65738;BMP280;52478;51.844;6.582;2024-01-10T12:31:37;102650.16;;;21.21
65738;BMP280;52478;51.844;6.582;2024-01-10T12:34:07;102642.28;;;21.20
65738;BMP280;52478;51.844;6.582;2024-01-10T12:36:34;102643.19;;;21.17
65738;BMP280;52478;51.844;6.582;2024-01-10T12:39:01;102645.72;;;21.15
65738;BMP280;52478;51.844;6.582;2024-01-10T12:41:27;102637.84;;;21.13
65738;BMP280;52478;51.844;6.582;2024-01-10T12:43:54;102641.09;;;21.12
65738;BMP280;52478;51.844;6.582;2024-01-10T12:46:22;102641.31;;;21.08
65738;BMP280;52478;51.844;6.582;2024-01-10T12:48:58;102646.13;;;21.08
65738;BMP280;52478;51.844;6.582;2024-01-10T12:51:27;102654.94;;;21.06
65738;BMP280;52478;51.844;6.582;2024-01-10T12:53:54;102649.84;;;21.05
65738;BMP280;52478;51.844;6.582;2024-01-10T12:56:21;102651.09;;;21.04
65738;BMP280;52478;51.844;6.582;2024-01-10T12:58:47;102643.97;;;21.03
65738;BMP280;52478;51.844;6.582;2024-01-10T13:01:14;102658.69;;;21.03
65738;BMP280;52478;51.844;6.582;2024-01-10T13:03:40;102655.91;;;21.03
65738;BMP280;52478;51.844;6.582;2024-01-10T13:06:08;102649.53;;;21.03
65738;BMP280;52478;51.844;6.582;2024-01-10T13:08:37;102659.13;;;21.02
65738;BMP280;52478;51.844;6.582;2024-01-10T13:11:03;102655.13;;;21.03
65738;BMP280;52478;51.844;6.582;2024-01-10T13:13:33;102653.56;;;21.02
65738;BMP280;52478;51.844;6.582;2024-01-10T13:16:00;102652.03;;;21.01
65738;BMP280;52478;51.844;6.582;2024-01-10T13:18:27;102645.41;;;20.98
65738;BMP280;52478;51.844;6.582;2024-01-10T13:20:54;102650.97;;;20.98
65738;BMP280;52478;51.844;6.582;2024-01-10T13:23:21;102645.88;;;20.97
65738;BMP280;52478;51.844;6.582;2024-01-10T13:25:50;102653.97;;;20.95
65738;BMP280;52478;51.844;6.582;2024-01-10T13:28:18;102648.41;;;20.95
65738;BMP280;52478;51.844;6.582;2024-01-10T13:30:45;102638.69;;;20.90
65738;BMP280;52478;51.844;6.582;2024-01-10T13:33:11;102646.06;;;20.93
65738;BMP280;52478;51.844;6.582;2024-01-10T13:35:38;102654.91;;;20.92
65738;BMP280;52478;51.844;6.582;2024-01-10T13:38:05;102658.16;;;20.90
65738;BMP280;52478;51.844;6.582;2024-01-10T13:40:31;102644.72;;;20.89
65738;BMP280;52478;51.844;6.582;2024-01-10T13:43:00;102652.34;;;20.88
65738;BMP280;52478;51.844;6.582;2024-01-10T13:45:28;102650.78;;;20.87
65738;BMP280;52478;51.844;6.582;2024-01-10T13:47:55;102646.91;;;20.85
65738;BMP280;52478;51.844;6.582;2024-01-10T13:50:22;102645.69;;;20.86
65738;BMP280;52478;51.844;6.582;2024-01-10T13:52:50;102642.59;;;20.84
65738;BMP280;52478;51.844;6.582;2024-01-10T13:55:16;102649.41;;;20.83
65738;BMP280;52478;51.844;6.582;2024-01-10T13:57:42;102662.56;;;20.82